Portsmouth, NH

10:38 AM EST on March 03, 2015 (GMT -0500)
Pease International Tradeport | Change Station
CLOSE
Current Station
Airport
Location: Portsmouth,
Elevation: 102 ft
Nearby Weather Stations
Active Advisory: Winter Weather Advisory

Elev 102 ft 43.08 °N, 70.82 °W | Updated 40 minutes ago

Mostly Cloudy
Mostly Cloudy
22 °F
Feels Like 13 °F
N
8
Wind Variable Wind from SW

Today
High -- | Low -- °F
--% Chance of Precip.
Yesterday
High -- | Low -- °F
Precip. -- in
6:16 AM 5:34 PM
Waxing Gibbous, 96% visible
Pressure 30.38 in
Visibility 10.0 miles
Clouds Mostly Cloudy 25000 ft
Windchill 13 °F
Dew Point -2 °F
Humidity 34%
Rainfall 0.00 in
Snow Depth Not available.
UV 2 out of 12
Pollen .30 out of 12
Air Quality Not available.
Flu Activity Not available.
METAR KPSM 031458Z 23007KT 10SM BKN250 M05/M19 A3036 RMK AO2A SLP286 T10531189 50007

More Conditions Fewer Conditions

Pressure 30.38 in
Visibility 10.0 miles
Clouds Mostly Cloudy 25000 ft
Windchill 13 °F
Dew Point -2 °F
Humidity 34%
Rainfall 0.00 in
Snow Depth Not available.
UV 2 out of 12
Pollen .30 out of 12
Air Quality Not available.
Flu Activity Not available.
METAR KPSM 031458Z 23007KT 10SM BKN250 M05/M19 A3036 RMK AO2A SLP286 T10531189 50007

More Conditions Fewer Conditions

10-Day Weather Forecast

Almanac

Astronomy

Mar. 03, 2015 Rise Set
Actual Time
Civil Twilight
Nautical Twilight
Astronomical Twilight
Moon
Length of Visible Light
Length of Day
Tomorrow will be .
, % of the Moon is Illuminated

Today's Extremes

State Highs State Lows

Community

WunderPhotos

Upload Photos

1,802,147 photos uploaded!

WunderBlogs® & News

Nearby

Air Quality

  Air Quality AQ Index Pollutant
Not available.

Snow Depth

Station Depth Elevation

Earthquake Activity

City Distance Mag. Time & Date
Minimum magnitude displayed is 2.5.

Coastal Water Temperatures

Place Temperature

Nearby Weather Stations

Winter Weather Advisory
Statement as of 3:20 AM EST on March 03, 2015

... Winter Weather Advisory in effect from 4 PM this afternoon to
7 am EST Wednesday...

The National Weather Service in gray has issued a Winter Weather
Advisory for snow and freezing rain... which is in effect from 4
PM this afternoon to 7 am EST Wednesday.

* Hazard types... snow and freezing rain.

* Accumulations... snow accumulation of 3 to 5 inches... along with
a few hundredths of an inch of ice.

* Timing... snow begins late this afternoon and continues into the
pre-dawn hours before ending by sunrise. Precipitation could mix
with or change to freezing rain as it ends after midnight.

* Impacts... Road will become snow covered and slippery.

* Winds... south 5 to 10 mph.

* Temperatures... 25 to 30.

Precautionary/preparedness actions...



A Winter Weather Advisory means that periods of snow... sleet... or
freezing rain will cause travel difficulties. Be prepared for
slippery roads and limited visibilities... and use caution while
driving.